Terminal Aerodrome Forecast
Issued by NWS Cleveland, OH

Home | Current Version | Previous Version | Text Only | Print | Product List | Glossary On
Versions: 1 2 3 4 5 6 7 8 9 10 11 12 13 14 15 16 17
000
FTUS41 KCLE 201726
TAFTOL
TAF
KTOL 201726Z 2018/2118 21014G22KT P6SM SKC
     FM210400 21012KT P6SM BKN250 WS020/23055KT
     FM211500 22016G26KT P6SM SCT060 BKN120=

USA.gov is the U.S. government's official web portal to all federal, state and local government web resources and services.